sensor_id;sensor_type;location;lat;lon;timestamp;pressure;altitude;pressure_sealevel;temperature;humidity
48517;BME280;34310;51.904;4.256;2022-12-29T00:01:00;99916.31;;;14.84;65.03
48517;BME280;34310;51.904;4.256;2022-12-29T00:03:29;99923.28;;;14.85;65.12
48517;BME280;34310;51.904;4.256;2022-12-29T00:05:57;99907.69;;;14.85;64.95
48517;BME280;34310;51.904;4.256;2022-12-29T00:08:25;99900.47;;;14.78;65.24
48517;BME280;34310;51.904;4.256;2022-12-29T00:11:21;99897.00;;;14.78;65.21
48517;BME280;34310;51.904;4.256;2022-12-29T00:13:49;99890.84;;;14.76;65.34
48517;BME280;34310;51.904;4.256;2022-12-29T00:16:36;99895.97;;;14.74;65.49
48517;BME280;34310;51.904;4.256;2022-12-29T00:19:05;99890.72;;;14.73;65.36
48517;BME280;34310;51.904;4.256;2022-12-29T00:21:33;99889.81;;;14.72;65.33
48517;BME280;34310;51.904;4.256;2022-12-29T00:24:21;99881.16;;;14.72;65.49
48517;BME280;34310;51.904;4.256;2022-12-29T00:29:50;99874.94;;;14.68;65.44
48517;BME280;34310;51.904;4.256;2022-12-29T00:32:36;99868.88;;;14.68;65.36
48517;BME280;34310;51.904;4.256;2022-12-29T00:35:44;99880.22;;;14.70;65.51
48517;BME280;34310;51.904;4.256;2022-12-29T00:38:13;99880.22;;;14.70;65.35
48517;BME280;34310;51.904;4.256;2022-12-29T00:40:59;99887.06;;;14.68;65.62
48517;BME280;34310;51.904;4.256;2022-12-29T00:43:45;99871.41;;;14.66;65.39
48517;BME280;34310;51.904;4.256;2022-12-29T00:46:35;99869.69;;;14.67;65.55
48517;BME280;34310;51.904;4.256;2022-12-29T00:49:03;99874.88;;;14.67;65.53
48517;BME280;34310;51.904;4.256;2022-12-29T00:51:49;99878.25;;;14.64;65.51
48517;BME280;34310;51.904;4.256;2022-12-29T00:54:17;99885.16;;;14.64;65.67
48517;BME280;34310;51.904;4.256;2022-12-29T00:56:48;99880.75;;;14.61;65.87
48517;BME280;34310;51.904;4.256;2022-12-29T00:59:16;99873.00;;;14.63;65.52
48517;BME280;34310;51.904;4.256;2022-12-29T01:01:44;99863.44;;;14.62;65.67
48517;BME280;34310;51.904;4.256;2022-12-29T01:04:13;99872.88;;;14.60;65.73
48517;BME280;34310;51.904;4.256;2022-12-29T01:06:41;99877.19;;;14.59;65.65
48517;BME280;34310;51.904;4.256;2022-12-29T01:09:09;99876.38;;;14.60;65.65
48517;BME280;34310;51.904;4.256;2022-12-29T01:11:55;99877.25;;;14.61;65.55
48517;BME280;34310;51.904;4.256;2022-12-29T01:14:23;99900.53;;;14.57;65.69
48517;BME280;34310;51.904;4.256;2022-12-29T01:16:51;99903.13;;;14.57;65.75
48517;BME280;34310;51.904;4.256;2022-12-29T01:19:20;99888.34;;;14.56;65.66
48517;BME280;34310;51.904;4.256;2022-12-29T01:21:48;99890.91;;;14.55;65.79
48517;BME280;34310;51.904;4.256;2022-12-29T01:24:17;99889.19;;;14.55;65.69
48517;BME280;34310;51.904;4.256;2022-12-29T01:26:45;99886.66;;;14.57;65.73
48517;BME280;34310;51.904;4.256;2022-12-29T01:29:12;99889.19;;;14.55;65.81
48517;BME280;34310;51.904;4.256;2022-12-29T01:31:40;99888.34;;;14.56;65.79
48517;BME280;34310;51.904;4.256;2022-12-29T01:34:07;99883.94;;;14.54;65.69
48517;BME280;34310;51.904;4.256;2022-12-29T01:36:35;99880.50;;;14.55;65.70
48517;BME280;34310;51.904;4.256;2022-12-29T01:39:03;99884.81;;;14.54;65.73
48517;BME280;34310;51.904;4.256;2022-12-29T01:41:30;99885.59;;;14.52;65.74
48517;BME280;34310;51.904;4.256;2022-12-29T01:43:59;99870.00;;;14.52;65.69
48517;BME280;34310;51.904;4.256;2022-12-29T01:49:11;99876.84;;;14.50;65.87
48517;BME280;34310;51.904;4.256;2022-12-29T01:51:55;99888.06;;;14.49;65.83
48517;BME280;34310;51.904;4.256;2022-12-29T01:56:56;99878.91;;;14.59;65.52
48517;BME280;34310;51.904;4.256;2022-12-29T01:59:30;99883.41;;;14.63;65.41
48517;BME280;34310;51.904;4.256;2022-12-29T02:01:59;99880.09;;;14.67;65.28
48517;BME280;34310;51.904;4.256;2022-12-29T02:04:27;99865.50;;;14.70;65.06
48517;BME280;34310;51.904;4.256;2022-12-29T02:07:04;99881.34;;;14.76;65.00
48517;BME280;34310;51.904;4.256;2022-12-29T02:09:33;99872.84;;;14.80;65.03
48517;BME280;34310;51.904;4.256;2022-12-29T02:12:01;99879.03;;;14.84;65.13
48517;BME280;34310;51.904;4.256;2022-12-29T02:14:29;99863.50;;;14.85;65.02
48517;BME280;34310;51.904;4.256;2022-12-29T02:20:17;99871.53;;;14.92;64.92
48517;BME280;34310;51.904;4.256;2022-12-29T02:26:05;99886.34;;;14.94;65.04
48517;BME280;34310;51.904;4.256;2022-12-29T02:34:26;99897.81;;;14.99;65.04
48517;BME280;34310;51.904;4.256;2022-12-29T02:37:14;99890.00;;;14.99;65.03
48517;BME280;34310;51.904;4.256;2022-12-29T02:45:54;99883.16;;;15.01;65.18
48517;BME280;34310;51.904;4.256;2022-12-29T02:48:50;99874.47;;;15.01;65.08
48517;BME280;34310;51.904;4.256;2022-12-29T02:51:27;99865.84;;;15.02;64.93
48517;BME280;34310;51.904;4.256;2022-12-29T02:53:58;99878.88;;;15.03;65.05
48517;BME280;34310;51.904;4.256;2022-12-29T02:56:44;99869.31;;;15.02;65.01
48517;BME280;34310;51.904;4.256;2022-12-29T02:59:12;99859.00;;;15.04;64.98
48517;BME280;34310;51.904;4.256;2022-12-29T03:07:23;99869.47;;;15.05;64.74
48517;BME280;34310;51.904;4.256;2022-12-29T03:10:05;99856.47;;;15.05;64.74
48517;BME280;34310;51.904;4.256;2022-12-29T03:12:53;99859.94;;;15.06;64.79
48517;BME280;34310;51.904;4.256;2022-12-29T03:15:55;99853.88;;;15.05;64.77
48517;BME280;34310;51.904;4.256;2022-12-29T03:24:15;99859.69;;;15.00;64.91
48517;BME280;34310;51.904;4.256;2022-12-29T03:26:46;99877.06;;;15.01;64.95
48517;BME280;34310;51.904;4.256;2022-12-29T03:29:16;99875.34;;;15.01;64.75
48517;BME280;34310;51.904;4.256;2022-12-29T03:31:45;99881.44;;;15.02;64.67
48517;BME280;34310;51.904;4.256;2022-12-29T03:34:15;99877.00;;;14.99;64.84
48517;BME280;34310;51.904;4.256;2022-12-29T03:36:57;99882.22;;;14.99;64.78
48517;BME280;34310;51.904;4.256;2022-12-29T03:39:27;99887.41;;;14.99;64.69
48517;BME280;34310;51.904;4.256;2022-12-29T03:42:00;99889.06;;;14.97;64.81
48517;BME280;34310;51.904;4.256;2022-12-29T03:44:36;99885.47;;;14.94;64.97
48517;BME280;34310;51.904;4.256;2022-12-29T03:47:05;99890.59;;;14.92;64.92
48517;BME280;34310;51.904;4.256;2022-12-29T03:49:33;99891.44;;;14.91;65.06
48517;BME280;34310;51.904;4.256;2022-12-29T03:52:01;99892.31;;;14.92;65.00
48517;BME280;34310;51.904;4.256;2022-12-29T03:54:29;99887.00;;;14.88;64.96
48517;BME280;34310;51.904;4.256;2022-12-29T03:56:56;99885.13;;;14.84;65.18
48517;BME280;34310;51.904;4.256;2022-12-29T03:59:24;99886.91;;;14.85;65.11
48517;BME280;34310;51.904;4.256;2022-12-29T04:01:51;99885.00;;;14.81;65.15
48517;BME280;34310;51.904;4.256;2022-12-29T04:04:19;99883.28;;;14.82;65.21
48517;BME280;34310;51.904;4.256;2022-12-29T04:06:46;99887.44;;;14.77;65.43
48517;BME280;34310;51.904;4.256;2022-12-29T04:09:13;99887.50;;;14.78;65.23
48517;BME280;34310;51.904;4.256;2022-12-29T04:11:40;99884.94;;;14.80;65.16
48517;BME280;34310;51.904;4.256;2022-12-29T04:14:08;99890.16;;;14.80;65.14
48517;BME280;34310;51.904;4.256;2022-12-29T04:16:35;99895.41;;;14.81;65.14
48517;BME280;34310;51.904;4.256;2022-12-29T04:19:03;99894.41;;;14.78;65.15
48517;BME280;34310;51.904;4.256;2022-12-29T04:21:30;99890.91;;;14.77;65.17
48517;BME280;34310;51.904;4.256;2022-12-29T04:23:57;99886.50;;;14.75;65.21
48517;BME280;34310;51.904;4.256;2022-12-29T04:26:25;99883.75;;;14.72;65.30
48517;BME280;34310;51.904;4.256;2022-12-29T04:28:52;99888.16;;;14.74;65.46
48517;BME280;34310;51.904;4.256;2022-12-29T04:31:20;99884.69;;;14.74;65.20
48517;BME280;34310;51.904;4.256;2022-12-29T04:33:47;99891.53;;;14.72;65.35
48517;BME280;34310;51.904;4.256;2022-12-29T04:36:14;99887.16;;;14.71;65.32
48517;BME280;34310;51.904;4.256;2022-12-29T04:38:44;99894.06;;;14.70;65.40
48517;BME280;34310;51.904;4.256;2022-12-29T04:41:11;99886.28;;;14.70;65.50
48517;BME280;34310;51.904;4.256;2022-12-29T04:43:39;99895.72;;;14.68;65.33
48517;BME280;34310;51.904;4.256;2022-12-29T04:46:06;99899.22;;;14.69;65.38
48517;BME280;34310;51.904;4.256;2022-12-29T04:48:33;99888.81;;;14.69;65.35
48517;BME280;34310;51.904;4.256;2022-12-29T04:51:01;99900.00;;;14.66;65.40
48517;BME280;34310;51.904;4.256;2022-12-29T04:53:28;99906.06;;;14.67;65.48
48517;BME280;34310;51.904;4.256;2022-12-29T04:55:55;99906.84;;;14.64;65.48
48517;BME280;34310;51.904;4.256;2022-12-29T04:58:23;99909.38;;;14.63;65.50
48517;BME280;34310;51.904;4.256;2022-12-29T05:00:51;99911.91;;;14.61;65.44
48517;BME280;34310;51.904;4.256;2022-12-29T05:03:19;99918.00;;;14.62;65.51
48517;BME280;34310;51.904;4.256;2022-12-29T05:05:46;99926.66;;;14.62;65.44
48517;BME280;34310;51.904;4.256;2022-12-29T05:08:14;99916.28;;;14.62;65.40
48517;BME280;34310;51.904;4.256;2022-12-29T05:10:45;99921.47;;;14.62;65.64
48517;BME280;34310;51.904;4.256;2022-12-29T05:13:12;99924.91;;;14.61;65.59
48517;BME280;34310;51.904;4.256;2022-12-29T05:15:40;99933.53;;;14.60;65.55
48517;BME280;34310;51.904;4.256;2022-12-29T05:18:07;99922.19;;;14.58;65.64
48517;BME280;34310;51.904;4.256;2022-12-29T05:20:35;99923.84;;;14.56;65.67
48517;BME280;34310;51.904;4.256;2022-12-29T05:23:02;99933.28;;;14.54;65.60
48517;BME280;34310;51.904;4.256;2022-12-29T05:25:29;99936.75;;;14.54;65.58
48517;BME280;34310;51.904;4.256;2022-12-29T05:27:57;99928.09;;;14.54;65.68
48517;BME280;34310;51.904;4.256;2022-12-29T05:30:24;99928.91;;;14.53;65.59
48517;BME280;34310;51.904;4.256;2022-12-29T05:32:51;99927.91;;;14.49;65.70
48517;BME280;34310;51.904;4.256;2022-12-29T05:35:19;99937.47;;;14.50;65.75
48517;BME280;34310;51.904;4.256;2022-12-29T05:37:46;99945.38;;;14.53;65.59
48517;BME280;34310;51.904;4.256;2022-12-29T05:40:13;99936.59;;;14.50;65.76
48517;BME280;34310;51.904;4.256;2022-12-29T05:42:40;99932.56;;;14.58;65.47
48517;BME280;34310;51.904;4.256;2022-12-29T05:45:08;99948.41;;;14.64;65.22
48517;BME280;34310;51.904;4.256;2022-12-29T05:47:36;99941.63;;;14.68;65.17
48517;BME280;34310;51.904;4.256;2022-12-29T05:50:03;99937.41;;;14.71;65.17
48517;BME280;34310;51.904;4.256;2022-12-29T05:52:31;99947.94;;;14.74;65.14
48517;BME280;34310;51.904;4.256;2022-12-29T05:54:58;99942.88;;;14.77;65.17
48517;BME280;34310;51.904;4.256;2022-12-29T05:57:25;99948.16;;;14.79;65.09
48517;BME280;34310;51.904;4.256;2022-12-29T05:59:53;99949.91;;;14.80;65.41
48517;BME280;34310;51.904;4.256;2022-12-29T06:02:20;99956.00;;;14.80;65.18
48517;BME280;34310;51.904;4.256;2022-12-29T06:04:47;99949.97;;;14.81;65.11
48517;BME280;34310;51.904;4.256;2022-12-29T06:07:15;99946.56;;;14.82;65.29
48517;BME280;34310;51.904;4.256;2022-12-29T06:09:43;99948.31;;;14.83;65.09
48517;BME280;34310;51.904;4.256;2022-12-29T06:12:10;99930.19;;;14.85;65.24
48517;BME280;34310;51.904;4.256;2022-12-29T06:14:37;99932.00;;;14.87;64.97
48517;BME280;34310;51.904;4.256;2022-12-29T06:17:05;99941.59;;;14.88;64.97
48517;BME280;34310;51.904;4.256;2022-12-29T06:19:33;99941.59;;;14.88;64.91
48517;BME280;34310;51.904;4.256;2022-12-29T06:22:00;99949.44;;;14.90;64.74
48517;BME280;34310;51.904;4.256;2022-12-29T06:24:27;99956.41;;;14.91;64.79
48517;BME280;34310;51.904;4.256;2022-12-29T06:26:55;99954.69;;;14.92;64.72
48517;BME280;34310;51.904;4.256;2022-12-29T06:29:22;99950.31;;;14.91;64.82
48517;BME280;34310;51.904;4.256;2022-12-29T06:31:49;99948.63;;;14.91;64.87
48517;BME280;34310;51.904;4.256;2022-12-29T06:34:18;99959.00;;;14.91;64.69
48517;BME280;34310;51.904;4.256;2022-12-29T06:36:45;99960.72;;;14.91;64.77
48517;BME280;34310;51.904;4.256;2022-12-29T06:39:12;99953.75;;;14.90;64.89
48517;BME280;34310;51.904;4.256;2022-12-29T06:41:40;99946.78;;;14.88;64.86
48517;BME280;34310;51.904;4.256;2022-12-29T06:44:07;99949.38;;;14.88;64.83
48517;BME280;34310;51.904;4.256;2022-12-29T06:46:34;99946.78;;;14.88;64.73
48517;BME280;34310;51.904;4.256;2022-12-29T06:49:02;99951.88;;;14.85;64.94
48517;BME280;34310;51.904;4.256;2022-12-29T06:51:29;99947.50;;;14.84;65.06
48517;BME280;34310;51.904;4.256;2022-12-29T06:53:56;99945.72;;;14.83;65.08
48517;BME280;34310;51.904;4.256;2022-12-29T06:56:24;99959.53;;;14.82;65.08
48517;BME280;34310;51.904;4.256;2022-12-29T06:58:51;99956.00;;;14.80;65.00
48517;BME280;34310;51.904;4.256;2022-12-29T07:01:18;99968.94;;;14.79;65.25
48517;BME280;34310;51.904;4.256;2022-12-29T07:03:46;99968.00;;;14.77;65.22
48517;BME280;34310;51.904;4.256;2022-12-29T07:06:13;99974.97;;;14.78;65.25
48517;BME280;34310;51.904;4.256;2022-12-29T07:08:40;99966.06;;;14.73;65.55
48517;BME280;34310;51.904;4.256;2022-12-29T07:11:08;99961.84;;;14.75;65.36
48517;BME280;34310;51.904;4.256;2022-12-29T07:13:35;99970.25;;;14.69;65.55
48517;BME280;34310;51.904;4.256;2022-12-29T07:16:08;99970.13;;;14.66;65.74
48517;BME280;34310;51.904;4.256;2022-12-29T07:18:36;99971.72;;;14.63;65.65
48517;BME280;34310;51.904;4.256;2022-12-29T07:21:03;99968.13;;;14.59;65.81
48517;BME280;34310;51.904;4.256;2022-12-29T07:23:31;99969.84;;;14.59;65.75
48517;BME280;34310;51.904;4.256;2022-12-29T07:26:03;99962.03;;;14.59;65.62
48517;BME280;34310;51.904;4.256;2022-12-29T07:28:31;99974.13;;;14.58;65.83
48517;BME280;34310;51.904;4.256;2022-12-29T07:31:02;99958.66;;;14.61;65.56
48517;BME280;34310;51.904;4.256;2022-12-29T07:33:30;99957.78;;;14.61;65.63
48517;BME280;34310;51.904;4.256;2022-12-29T07:35:58;99963.81;;;14.60;65.63
48517;BME280;34310;51.904;4.256;2022-12-29T07:38:26;99961.97;;;14.57;65.78
48517;BME280;34310;51.904;4.256;2022-12-29T07:40:57;99967.16;;;14.57;65.71
48517;BME280;34310;51.904;4.256;2022-12-29T07:43:25;99961.03;;;14.55;65.76
48517;BME280;34310;51.904;4.256;2022-12-29T07:45:53;99963.63;;;14.55;65.91
48517;BME280;34310;51.904;4.256;2022-12-29T07:48:20;99972.25;;;14.54;65.84
48517;BME280;34310;51.904;4.256;2022-12-29T07:50:48;99964.44;;;14.54;65.88
48517;BME280;34310;51.904;4.256;2022-12-29T07:53:15;99978.25;;;14.53;65.87
48517;BME280;34310;51.904;4.256;2022-12-29T07:55:43;99977.31;;;14.51;66.03
48517;BME280;34310;51.904;4.256;2022-12-29T07:58:10;99979.78;;;14.48;66.10
48517;BME280;34310;51.904;4.256;2022-12-29T08:00:38;99984.22;;;14.50;66.04
48517;BME280;34310;51.904;4.256;2022-12-29T08:03:06;99984.97;;;14.48;66.04
48517;BME280;34310;51.904;4.256;2022-12-29T08:05:34;99973.78;;;14.49;65.99
48517;BME280;34310;51.904;4.256;2022-12-29T08:08:01;99985.03;;;14.49;66.17
48517;BME280;34310;51.904;4.256;2022-12-29T08:10:28;99989.34;;;14.49;65.92
48517;BME280;34310;51.904;4.256;2022-12-29T08:12:55;99972.00;;;14.48;66.11
48517;BME280;34310;51.904;4.256;2022-12-29T08:15:23;99990.13;;;14.46;66.13
48517;BME280;34310;51.904;4.256;2022-12-29T08:17:58;99996.19;;;14.47;66.20
48517;BME280;34310;51.904;4.256;2022-12-29T08:20:25;100008.19;;;14.45;66.25
48517;BME280;34310;51.904;4.256;2022-12-29T08:22:53;100010.81;;;14.45;66.18
48517;BME280;34310;51.904;4.256;2022-12-29T08:25:20;100034.19;;;14.45;66.35
48517;BME280;34310;51.904;4.256;2022-12-29T08:27:48;100012.59;;;14.46;66.24
48517;BME280;34310;51.904;4.256;2022-12-29T08:30:15;100025.50;;;14.44;66.21
48517;BME280;34310;51.904;4.256;2022-12-29T08:32:43;100029.88;;;14.45;66.38
48517;BME280;34310;51.904;4.256;2022-12-29T08:35:10;100031.56;;;14.45;66.31
48517;BME280;34310;51.904;4.256;2022-12-29T08:37:39;100039.31;;;14.43;66.36
48517;BME280;34310;51.904;4.256;2022-12-29T08:40:07;100053.19;;;14.44;66.32
48517;BME280;34310;51.904;4.256;2022-12-29T08:42:35;100059.09;;;14.41;66.49
48517;BME280;34310;51.904;4.256;2022-12-29T08:45:02;100053.19;;;14.44;66.29
48517;BME280;34310;51.904;4.256;2022-12-29T08:47:30;100061.78;;;14.43;66.48
48517;BME280;34310;51.904;4.256;2022-12-29T08:49:57;100072.09;;;14.41;66.54
48517;BME280;34310;51.904;4.256;2022-12-29T08:52:24;100066.00;;;14.41;66.44
48517;BME280;34310;51.904;4.256;2022-12-29T08:54:52;100068.59;;;14.41;66.58
48517;BME280;34310;51.904;4.256;2022-12-29T08:57:19;100079.81;;;14.40;66.48
48517;BME280;34310;51.904;4.256;2022-12-29T08:59:47;100093.69;;;14.40;66.63
48517;BME280;34310;51.904;4.256;2022-12-29T09:02:14;100075.00;;;14.47;66.18
48517;BME280;34310;51.904;4.256;2022-12-29T09:04:49;100090.84;;;14.53;65.95
48517;BME280;34310;51.904;4.256;2022-12-29T09:07:17;100095.41;;;14.59;65.87
48517;BME280;34310;51.904;4.256;2022-12-29T09:09:44;100091.22;;;14.63;65.66
48517;BME280;34310;51.904;4.256;2022-12-29T09:12:11;100105.16;;;14.65;65.77
48517;BME280;34310;51.904;4.256;2022-12-29T09:14:39;100104.41;;;14.67;65.60
48517;BME280;34310;51.904;4.256;2022-12-29T09:17:06;100106.25;;;14.70;65.66
48517;BME280;34310;51.904;4.256;2022-12-29T09:19:52;100103.72;;;14.71;65.57
48517;BME280;34310;51.904;4.256;2022-12-29T09:22:19;100124.56;;;14.73;65.48
48517;BME280;34310;51.904;4.256;2022-12-29T09:24:47;100124.63;;;14.74;65.44
48517;BME280;34310;51.904;4.256;2022-12-29T09:27:14;100130.75;;;14.75;65.47
48517;BME280;34310;51.904;4.256;2022-12-29T09:29:42;100135.94;;;14.75;65.40
48517;BME280;34310;51.904;4.256;2022-12-29T09:32:09;100129.03;;;14.75;65.42
48517;BME280;34310;51.904;4.256;2022-12-29T09:34:44;100138.59;;;14.76;65.41
48517;BME280;34310;51.904;4.256;2022-12-29T09:37:11;100139.50;;;14.77;65.38
48517;BME280;34310;51.904;4.256;2022-12-29T09:39:39;100154.19;;;14.76;65.61
48517;BME280;34310;51.904;4.256;2022-12-29T09:45:14;100168.00;;;14.75;65.37
48517;BME280;34310;51.904;4.256;2022-12-29T09:47:44;100178.41;;;14.75;65.45
48517;BME280;34310;51.904;4.256;2022-12-29T09:50:31;100174.09;;;14.76;65.49
48517;BME280;34310;51.904;4.256;2022-12-29T09:54:10;100189.75;;;14.77;65.32
48517;BME280;34310;51.904;4.256;2022-12-29T09:56:02;100187.97;;;14.76;65.44
48517;BME280;34310;51.904;4.256;2022-12-29T09:58:52;100192.34;;;14.77;65.43
48517;BME280;34310;51.904;4.256;2022-12-29T10:01:29;100203.50;;;14.75;65.39
48517;BME280;34310;51.904;4.256;2022-12-29T10:03:59;100214.63;;;14.72;65.65
48517;BME280;34310;51.904;4.256;2022-12-29T10:06:39;100216.31;;;14.72;65.63
48517;BME280;34310;51.904;4.256;2022-12-29T10:15:54;100242.31;;;14.72;65.68
48517;BME280;34310;51.904;4.256;2022-12-29T10:21:28;100253.66;;;14.74;65.48
48517;BME280;34310;51.904;4.256;2022-12-29T10:24:00;100250.16;;;14.73;65.38
48517;BME280;34310;51.904;4.256;2022-12-29T10:26:36;100262.34;;;14.74;65.48
48517;BME280;34310;51.904;4.256;2022-12-29T10:29:11;100256.19;;;14.72;65.51
48517;BME280;34310;51.904;4.256;2022-12-29T10:32:05;100270.06;;;14.73;65.44
48517;BME280;34310;51.904;4.256;2022-12-29T10:34:45;100270.81;;;14.70;65.66
48517;BME280;34310;51.904;4.256;2022-12-29T10:39:52;100280.63;;;14.76;65.55
48517;BME280;34310;51.904;4.256;2022-12-29T10:42:36;100280.84;;;14.80;65.57
48517;BME280;34310;51.904;4.256;2022-12-29T10:45:06;100287.81;;;14.81;65.50
48517;BME280;34310;51.904;4.256;2022-12-29T10:48:02;100281.03;;;14.85;65.34
48517;BME280;34310;51.904;4.256;2022-12-29T10:50:31;100289.72;;;14.85;65.28
48517;BME280;34310;51.904;4.256;2022-12-29T10:53:00;100293.22;;;14.86;65.19
48517;BME280;34310;51.904;4.256;2022-12-29T10:55:33;100292.38;;;14.87;65.25
48517;BME280;34310;51.904;4.256;2022-12-29T10:58:07;100302.72;;;14.85;65.26
48517;BME280;34310;51.904;4.256;2022-12-29T11:00:37;100303.47;;;14.83;65.26
48517;BME280;34310;51.904;4.256;2022-12-29T11:03:11;100313.81;;;14.81;65.35
48517;BME280;34310;51.904;4.256;2022-12-29T11:05:57;100320.78;;;14.82;65.31
48517;BME280;34310;51.904;4.256;2022-12-29T11:08:33;100329.31;;;14.80;65.43
48517;BME280;34310;51.904;4.256;2022-12-29T11:11:05;100326.78;;;14.81;65.21
48517;BME280;34310;51.904;4.256;2022-12-29T11:13:35;100332.00;;;14.81;65.25
48517;BME280;34310;51.904;4.256;2022-12-29T11:16:13;100334.72;;;14.84;65.29
48517;BME280;34310;51.904;4.256;2022-12-29T11:18:41;100336.50;;;14.85;65.12
48517;BME280;34310;51.904;4.256;2022-12-29T11:21:37;100340.88;;;14.86;65.18
48517;BME280;34310;51.904;4.256;2022-12-29T11:24:21;100348.59;;;14.85;65.19
48517;BME280;34310;51.904;4.256;2022-12-29T11:26:54;100361.47;;;14.82;65.25
48517;BME280;34310;51.904;4.256;2022-12-29T11:29:27;100353.66;;;14.82;65.29
48517;BME280;34310;51.904;4.256;2022-12-29T11:31:57;100360.78;;;14.86;65.04
48517;BME280;34310;51.904;4.256;2022-12-29T11:34:34;100359.91;;;14.85;65.10
48517;BME280;34310;51.904;4.256;2022-12-29T11:37:16;100368.66;;;14.87;65.13
48517;BME280;34310;51.904;4.256;2022-12-29T11:39:59;100353.94;;;14.88;64.91
48517;BME280;34310;51.904;4.256;2022-12-29T11:42:47;100359.97;;;14.87;65.09
48517;BME280;34310;51.904;4.256;2022-12-29T11:45:18;100359.91;;;14.85;64.99
48517;BME280;34310;51.904;4.256;2022-12-29T11:50:27;100360.78;;;14.86;64.99
48517;BME280;34310;51.904;4.256;2022-12-29T11:53:06;100366.06;;;14.87;64.97
48517;BME280;34310;51.904;4.256;2022-12-29T11:55:34;100367.63;;;14.84;64.93
48517;BME280;34310;51.904;4.256;2022-12-29T11:58:04;100364.97;;;14.82;65.17
48517;BME280;34310;51.904;4.256;2022-12-29T12:00:36;100361.41;;;14.80;65.20
48517;BME280;34310;51.904;4.256;2022-12-29T12:03:19;100371.78;;;14.80;65.07
48517;BME280;34310;51.904;4.256;2022-12-29T12:05:54;100362.28;;;14.81;65.30
48517;BME280;34310;51.904;4.256;2022-12-29T12:11:26;100359.91;;;14.85;65.11
48517;BME280;34310;51.904;4.256;2022-12-29T12:16:39;100364.28;;;14.86;64.87
48517;BME280;34310;51.904;4.256;2022-12-29T12:19:38;100360.84;;;14.87;64.85
48517;BME280;34310;51.904;4.256;2022-12-29T12:25:17;100370.44;;;14.88;64.76
48517;BME280;34310;51.904;4.256;2022-12-29T12:28:02;100372.13;;;14.88;64.63
48517;BME280;34310;51.904;4.256;2022-12-29T12:30:36;100382.59;;;14.90;64.73
48517;BME280;34310;51.904;4.256;2022-12-29T12:49:03;100386.84;;;14.87;64.76
48517;BME280;34310;51.904;4.256;2022-12-29T13:00:19;100401.47;;;14.85;64.86
48517;BME280;34310;51.904;4.256;2022-12-29T13:03:04;100393.63;;;14.84;65.08
48517;BME280;34310;51.904;4.256;2022-12-29T13:06:10;100391.84;;;14.83;64.88
48517;BME280;34310;51.904;4.256;2022-12-29T13:19:11;100401.06;;;14.76;65.14
48517;BME280;34310;51.904;4.256;2022-12-29T13:24:24;100409.69;;;14.75;65.20
48517;BME280;34310;51.904;4.256;2022-12-29T13:27:09;100412.28;;;14.75;65.32
48517;BME280;34310;51.904;4.256;2022-12-29T13:35:28;100413.81;;;14.72;65.23
48517;BME280;34310;51.904;4.256;2022-12-29T13:40:34;100411.88;;;14.68;65.33
48517;BME280;34310;51.904;4.256;2022-12-29T13:43:03;100406.69;;;14.68;65.25
48517;BME280;34310;51.904;4.256;2022-12-29T13:45:32;100412.78;;;14.68;65.25
48517;BME280;34310;51.904;4.256;2022-12-29T13:50:36;100404.84;;;14.65;65.32
48517;BME280;34310;51.904;4.256;2022-12-29T13:56:07;100402.16;;;14.64;65.39
48517;BME280;34310;51.904;4.256;2022-12-29T13:58:54;100410.03;;;14.65;65.31
48517;BME280;34310;51.904;4.256;2022-12-29T14:01:54;100402.16;;;14.64;65.39
48517;BME280;34310;51.904;4.256;2022-12-29T14:04:28;100421.31;;;14.66;65.36
48517;BME280;34310;51.904;4.256;2022-12-29T14:07:05;100412.78;;;14.68;65.19
48517;BME280;34310;51.904;4.256;2022-12-29T14:09:51;100413.81;;;14.72;65.06
48517;BME280;34310;51.904;4.256;2022-12-29T14:12:38;100417.47;;;14.75;64.92
48517;BME280;34310;51.904;4.256;2022-12-29T14:17:39;100409.06;;;14.81;64.85
48517;BME280;34310;51.904;4.256;2022-12-29T14:20:21;100408.31;;;14.83;64.76
48517;BME280;34310;51.904;4.256;2022-12-29T14:23:14;100415.38;;;14.86;64.78
48517;BME280;34310;51.904;4.256;2022-12-29T14:28:35;100416.31;;;14.88;64.82
48517;BME280;34310;51.904;4.256;2022-12-29T14:31:32;100414.69;;;14.90;64.77
48517;BME280;34310;51.904;4.256;2022-12-29T14:37:01;100422.56;;;14.92;64.65
48517;BME280;34310;51.904;4.256;2022-12-29T14:42:15;100416.53;;;14.93;64.94
48517;BME280;34310;51.904;4.256;2022-12-29T14:45:02;100416.53;;;14.93;64.89
48517;BME280;34310;51.904;4.256;2022-12-29T14:47:42;100427.81;;;14.93;64.83
48517;BME280;34310;51.904;4.256;2022-12-29T14:50:25;100431.31;;;14.94;64.67
48517;BME280;34310;51.904;4.256;2022-12-29T14:53:02;100435.63;;;14.93;64.87
48517;BME280;34310;51.904;4.256;2022-12-29T14:58:32;100446.00;;;14.93;64.82
48517;BME280;34310;51.904;4.256;2022-12-29T15:01:03;100444.22;;;14.92;64.80
48517;BME280;34310;51.904;4.256;2022-12-29T15:03:38;100450.25;;;14.91;64.76
48517;BME280;34310;51.904;4.256;2022-12-29T15:06:12;100447.59;;;14.90;64.80
48517;BME280;34310;51.904;4.256;2022-12-29T15:09:04;100457.91;;;14.88;64.97
48517;BME280;34310;51.904;4.256;2022-12-29T15:14:23;100460.38;;;14.85;65.10
48517;BME280;34310;51.904;4.256;2022-12-29T15:16:51;100457.78;;;14.85;65.00
48517;BME280;34310;51.904;4.256;2022-12-29T15:19:26;100470.69;;;14.83;65.17
48517;BME280;34310;51.904;4.256;2022-12-29T15:21:54;100467.13;;;14.81;65.08
48517;BME280;34310;51.904;4.256;2022-12-29T15:24:23;100476.63;;;14.81;65.13
48517;BME280;34310;51.904;4.256;2022-12-29T15:26:53;100479.97;;;14.78;65.30
48517;BME280;34310;51.904;4.256;2022-12-29T15:29:40;100477.47;;;14.80;65.29
48517;BME280;34310;51.904;4.256;2022-12-29T15:34:46;100478.13;;;14.76;65.33
48517;BME280;34310;51.904;4.256;2022-12-29T15:37:26;100473.81;;;14.76;65.21